createdAt,value
2023-09-17T00:00:36.093Z,99.90
2023-09-17T00:06:38.034Z,99.90
2023-09-17T00:12:39.865Z,99.90
2023-09-17T00:18:41.613Z,99.90
2023-09-17T00:24:43.294Z,99.90
2023-09-17T00:30:45.146Z,99.90
2023-09-17T00:36:47.407Z,99.90
2023-09-17T00:42:49.206Z,99.90
2023-09-17T00:48:51.096Z,99.90
2023-09-17T00:54:53.085Z,99.90
2023-09-17T01:00:55.485Z,99.90
2023-09-17T01:06:57.484Z,99.90
2023-09-17T01:12:59.356Z,99.90
2023-09-17T01:19:01.215Z,99.90
2023-09-17T01:25:19.649Z,99.90
2023-09-17T01:31:22.069Z,99.90
2023-09-17T01:37:24.414Z,99.90
2023-09-17T01:43:26.536Z,99.90
2023-09-17T01:49:30.052Z,99.90
2023-09-17T01:55:31.839Z,99.90
2023-09-17T02:01:33.665Z,99.90
2023-09-17T02:07:35.630Z,99.90
2023-09-17T02:13:37.428Z,99.90
2023-09-17T02:19:39.550Z,99.90
2023-09-17T02:25:41.434Z,99.90
2023-09-17T02:31:43.318Z,99.90
2023-09-17T02:37:45.303Z,99.90
2023-09-17T02:43:47.109Z,99.90
2023-09-17T02:49:48.914Z,99.90
2023-09-17T02:55:50.858Z,99.90
2023-09-17T03:01:52.871Z,99.90
2023-09-17T03:07:57.766Z,99.90
2023-09-17T03:13:59.885Z,99.90
2023-09-17T03:20:10.384Z,99.90
2023-09-17T03:26:12.283Z,99.90
2023-09-17T03:32:13.958Z,99.90
2023-09-17T03:38:15.743Z,99.90
2023-09-17T03:44:17.484Z,99.90
2023-09-17T03:50:21.597Z,99.90
2023-09-17T03:56:24.035Z,99.90
2023-09-17T04:02:26.874Z,99.90
2023-09-17T04:08:28.716Z,99.90
2023-09-17T04:14:32.310Z,99.90
2023-09-17T04:20:34.085Z,99.90
2023-09-17T04:26:35.942Z,99.90
2023-09-17T04:32:38.949Z,99.90
2023-09-17T04:38:40.915Z,99.90
2023-09-17T04:44:42.801Z,99.90
2023-09-17T04:50:47.961Z,99.90
2023-09-17T04:56:50.183Z,99.90
2023-09-17T05:02:52.257Z,99.90
2023-09-17T05:08:54.251Z,99.90
2023-09-17T05:14:55.983Z,99.90
2023-09-17T05:20:57.966Z,99.90
2023-09-17T05:27:00.060Z,99.90
2023-09-17T05:33:02.121Z,99.90
2023-09-17T05:39:04.780Z,99.90
2023-09-17T05:45:06.792Z,99.90
2023-09-17T05:51:09.050Z,99.90
2023-09-17T05:57:10.806Z,99.90
2023-09-17T06:03:12.977Z,99.90
2023-09-17T06:09:15.136Z,99.90
2023-09-17T06:15:16.892Z,99.90
2023-09-17T06:21:18.894Z,99.90
2023-09-17T06:27:20.624Z,99.90
2023-09-17T06:33:22.457Z,99.90
2023-09-17T06:39:24.164Z,99.90
2023-09-17T06:45:26.341Z,99.90
2023-09-17T06:51:28.107Z,99.90
2023-09-17T06:57:29.777Z,99.90
2023-09-17T07:03:31.751Z,99.90
2023-09-17T07:09:33.566Z,99.90
2023-09-17T07:15:35.333Z,99.90
2023-09-17T07:21:37.091Z,99.90
2023-09-17T07:27:38.852Z,99.90
2023-09-17T07:33:42.529Z,99.90
2023-09-17T07:39:46.408Z,99.90
2023-09-17T07:45:48.287Z,99.90
2023-09-17T07:51:51.702Z,99.90
2023-09-17T07:57:53.662Z,99.90
2023-09-17T08:03:56.445Z,99.90
2023-09-17T08:09:59.553Z,99.90
2023-09-17T08:16:01.527Z,99.90
2023-09-17T08:22:03.326Z,99.90
2023-09-17T08:28:08.722Z,99.90
2023-09-17T08:34:12.004Z,99.90
2023-09-17T08:40:15.422Z,99.90
2023-09-17T08:46:17.662Z,99.90
2023-09-17T08:52:20.379Z,99.90
2023-09-17T08:58:25.972Z,99.90
2023-09-17T09:04:28.632Z,99.90
2023-09-17T09:10:30.915Z,99.90
2023-09-17T09:16:37.796Z,99.90
2023-09-17T09:22:39.967Z,99.90
2023-09-17T09:28:41.908Z,99.90
2023-09-17T09:34:43.953Z,99.90
2023-09-17T09:40:46.406Z,99.90
2023-09-17T09:46:49.420Z,99.90
2023-09-17T09:52:51.488Z,99.90
2023-09-17T09:58:55.447Z,99.90
2023-09-17T10:04:57.931Z,99.90
2023-09-17T10:10:59.897Z,99.90
2023-09-17T10:17:02.866Z,99.90
2023-09-17T10:23:06.348Z,99.90
2023-09-17T10:29:08.831Z,99.90
2023-09-17T10:35:11.299Z,99.90
2023-09-17T10:41:13.846Z,99.90
2023-09-17T10:47:17.631Z,98.60
2023-09-17T10:53:19.456Z,99.90
2023-09-17T10:59:21.760Z,99.90
2023-09-17T11:05:25.614Z,61.10
2023-09-17T11:11:29.586Z,55.50
2023-09-17T11:17:32.943Z,44.40
2023-09-17T11:23:45.504Z,33.50
2023-09-17T11:29:47.778Z,52.70
2023-09-17T11:35:52.376Z,30.20
2023-09-17T11:42:04.177Z,3.80
2023-09-17T11:48:07.668Z,1.00
2023-09-17T11:54:09.816Z,1.00
2023-09-17T12:00:27.048Z,5.70
2023-09-17T12:06:29.007Z,16.80
2023-09-17T12:12:32.915Z,1.00
2023-09-17T12:18:35.214Z,1.00
2023-09-17T12:24:37.037Z,1.00
2023-09-17T12:30:38.900Z,1.00
2023-09-17T12:36:43.329Z,1.00
2023-09-17T12:42:45.014Z,1.00
2023-09-17T12:48:46.912Z,1.00
2023-09-17T12:54:48.663Z,1.00
2023-09-17T13:00:50.447Z,1.00
2023-09-17T13:06:52.147Z,1.00
2023-09-17T13:12:53.857Z,1.00
2023-09-17T13:18:55.763Z,1.00
2023-09-17T13:24:58.068Z,1.00
2023-09-17T13:31:05.787Z,1.00
2023-09-17T13:37:09.834Z,1.00
2023-09-17T13:43:11.674Z,1.00
2023-09-17T13:49:13.504Z,4.40
2023-09-17T13:55:18.997Z,38.80
2023-09-17T14:01:20.689Z,27.40
2023-09-17T14:07:22.572Z,36.70
2023-09-17T14:13:24.391Z,47.90
2023-09-17T14:19:26.119Z,41.60
2023-09-17T14:25:27.826Z,21.50
2023-09-17T14:31:29.717Z,1.00
2023-09-17T14:37:31.926Z,30.20
2023-09-17T14:43:33.790Z,26.10
2023-09-17T14:49:35.657Z,1.00
2023-09-17T14:55:37.772Z,1.00
2023-09-17T15:07:44.297Z,1.00
2023-09-17T15:13:47.535Z,1.00
2023-09-17T15:19:49.400Z,1.00
2023-09-17T15:25:51.504Z,1.00
2023-09-17T15:31:55.780Z,1.00
2023-09-17T15:38:06.862Z,1.00
2023-09-17T15:44:09.278Z,1.00
2023-09-17T15:50:12.771Z,1.00
2023-09-17T15:56:14.834Z,18.20
2023-09-17T16:02:17.061Z,23.80
2023-09-17T16:08:18.846Z,56.80
2023-09-17T16:14:20.681Z,85.20
2023-09-17T16:20:22.563Z,99.90
2023-09-17T16:26:24.383Z,99.90
2023-09-17T16:32:26.288Z,99.90
2023-09-17T16:38:28.179Z,99.90
2023-09-17T16:44:29.898Z,99.90
2023-09-17T16:50:32.774Z,99.90
2023-09-17T16:56:34.665Z,99.90
2023-09-17T17:02:36.978Z,99.90
2023-09-17T17:08:38.715Z,99.90
2023-09-17T17:14:42.803Z,99.90
2023-09-17T17:20:44.520Z,99.90
2023-09-17T17:26:46.816Z,99.90
2023-09-17T17:32:48.588Z,99.90
2023-09-17T17:38:50.513Z,99.90
2023-09-17T17:44:52.198Z,99.90
2023-09-17T17:50:54.129Z,99.90
2023-09-17T17:56:58.233Z,99.90
2023-09-17T18:03:00.257Z,99.90
2023-09-17T18:09:02.329Z,99.90
2023-09-17T18:15:04.593Z,99.90
2023-09-17T18:21:06.598Z,99.90
2023-09-17T18:27:08.300Z,99.90
2023-09-17T18:33:10.123Z,99.90
2023-09-17T18:39:12.098Z,99.90
2023-09-17T18:45:13.859Z,99.90
2023-09-17T18:51:15.894Z,99.90
2023-09-17T18:57:17.662Z,99.90
2023-09-17T19:03:22.286Z,99.90
2023-09-17T19:09:24.233Z,99.90
2023-09-17T19:15:26.049Z,99.90
2023-09-17T19:21:28.016Z,99.90
2023-09-17T19:27:30.665Z,99.90
2023-09-17T19:33:32.880Z,99.90
2023-09-17T19:39:36.147Z,99.90
2023-09-17T19:45:37.915Z,99.90
2023-09-17T19:51:39.829Z,99.90
2023-09-17T19:57:43.514Z,99.90
2023-09-17T20:03:45.941Z,99.90
2023-09-17T20:09:47.817Z,99.90
2023-09-17T20:15:49.595Z,99.90
2023-09-17T20:21:51.552Z,99.90
2023-09-17T20:27:56.938Z,99.90
2023-09-17T20:33:58.607Z,99.90
2023-09-17T20:40:00.783Z,99.90
2023-09-17T20:46:04.936Z,99.90
2023-09-17T20:52:06.694Z,99.90
2023-09-17T20:58:08.516Z,99.90
2023-09-17T21:04:10.330Z,99.90
2023-09-17T21:10:12.501Z,99.90
2023-09-17T21:16:17.023Z,99.90
2023-09-17T21:22:19.174Z,99.90
2023-09-17T21:28:20.856Z,99.90
2023-09-17T21:34:22.514Z,99.90
2023-09-17T21:40:24.283Z,99.90
2023-09-17T21:46:26.284Z,99.90
2023-09-17T21:52:29.568Z,99.90
2023-09-17T21:58:31.289Z,99.90
2023-09-17T22:04:33.025Z,99.90
2023-09-17T22:10:35.146Z,99.90
2023-09-17T22:16:37.193Z,99.90
2023-09-17T22:22:39.134Z,99.90
2023-09-17T22:28:40.846Z,99.90
2023-09-17T22:34:42.584Z,99.90
2023-09-17T22:40:44.347Z,99.90
2023-09-17T22:46:46.235Z,99.90
2023-09-17T22:52:47.980Z,99.90
2023-09-17T22:58:50.134Z,99.90
2023-09-17T23:04:52.245Z,99.90
2023-09-17T23:10:58.057Z,99.90
2023-09-17T23:17:00.210Z,99.90
2023-09-17T23:23:02.044Z,99.90
2023-09-17T23:29:05.035Z,99.90
2023-09-17T23:35:07.154Z,99.90
2023-09-17T23:41:09.619Z,99.90
2023-09-17T23:47:11.798Z,99.90
2023-09-17T23:53:13.633Z,99.90
2023-09-17T23:59:15.415Z,99.90
